sensor_id;sensor_type;location;lat;lon;timestamp;P1;durP1;ratioP1;P2;durP2;ratioP2
35693;SDS011;21812;55.536;37.664;2023-09-30T00:01:09;19.67;;;10.07;;
35693;SDS011;21812;55.536;37.664;2023-09-30T00:03:39;13.25;;;10.00;;
35693;SDS011;21812;55.536;37.664;2023-09-30T00:06:06;16.42;;;11.32;;
35693;SDS011;21812;55.536;37.664;2023-09-30T00:08:32;12.18;;;9.30;;
35693;SDS011;21812;55.536;37.664;2023-09-30T00:10:57;17.00;;;9.23;;
35693;SDS011;21812;55.536;37.664;2023-09-30T00:13:23;11.60;;;9.00;;
35693;SDS011;21812;55.536;37.664;2023-09-30T00:15:49;18.98;;;10.50;;
35693;SDS011;21812;55.536;37.664;2023-09-30T00:18:15;15.65;;;11.00;;
35693;SDS011;21812;55.536;37.664;2023-09-30T00:20:40;13.27;;;9.00;;
35693;SDS011;21812;55.536;37.664;2023-09-30T00:23:06;13.20;;;9.48;;
35693;SDS011;21812;55.536;37.664;2023-09-30T00:25:32;17.85;;;10.40;;
35693;SDS011;21812;55.536;37.664;2023-09-30T00:27:58;15.77;;;10.38;;
35693;SDS011;21812;55.536;37.664;2023-09-30T00:30:24;17.77;;;11.95;;
35693;SDS011;21812;55.536;37.664;2023-09-30T00:32:50;14.57;;;9.98;;
35693;SDS011;21812;55.536;37.664;2023-09-30T00:35:16;16.30;;;10.35;;
35693;SDS011;21812;55.536;37.664;2023-09-30T00:37:42;17.15;;;10.70;;
35693;SDS011;21812;55.536;37.664;2023-09-30T00:40:08;15.50;;;9.80;;
35693;SDS011;21812;55.536;37.664;2023-09-30T00:42:39;13.32;;;9.55;;
35693;SDS011;21812;55.536;37.664;2023-09-30T00:45:08;15.63;;;10.02;;
35693;SDS011;21812;55.536;37.664;2023-09-30T00:47:36;16.92;;;9.38;;
35693;SDS011;21812;55.536;37.664;2023-09-30T00:50:03;14.90;;;9.93;;
35693;SDS011;21812;55.536;37.664;2023-09-30T00:52:32;18.33;;;9.73;;
35693;SDS011;21812;55.536;37.664;2023-09-30T00:54:59;14.25;;;9.77;;
35693;SDS011;21812;55.536;37.664;2023-09-30T00:57:25;16.10;;;9.60;;
35693;SDS011;21812;55.536;37.664;2023-09-30T00:59:51;15.77;;;10.70;;
35693;SDS011;21812;55.536;37.664;2023-09-30T01:02:17;15.55;;;8.75;;
35693;SDS011;21812;55.536;37.664;2023-09-30T01:04:44;12.88;;;9.18;;
35693;SDS011;21812;55.536;37.664;2023-09-30T01:07:10;12.38;;;8.10;;
35693;SDS011;21812;55.536;37.664;2023-09-30T01:09:37;12.32;;;8.57;;
35693;SDS011;21812;55.536;37.664;2023-09-30T01:12:04;12.68;;;8.77;;
35693;SDS011;21812;55.536;37.664;2023-09-30T01:14:31;11.85;;;8.77;;
35693;SDS011;21812;55.536;37.664;2023-09-30T01:17:03;14.25;;;9.43;;
35693;SDS011;21812;55.536;37.664;2023-09-30T01:19:29;14.55;;;9.23;;
35693;SDS011;21812;55.536;37.664;2023-09-30T01:21:57;15.88;;;10.25;;
35693;SDS011;21812;55.536;37.664;2023-09-30T01:24:28;14.02;;;8.93;;
35693;SDS011;21812;55.536;37.664;2023-09-30T01:26:55;11.23;;;8.52;;
35693;SDS011;21812;55.536;37.664;2023-09-30T01:29:21;11.25;;;8.65;;
35693;SDS011;21812;55.536;37.664;2023-09-30T01:31:48;14.30;;;9.02;;
35693;SDS011;21812;55.536;37.664;2023-09-30T01:34:15;13.45;;;9.43;;
35693;SDS011;21812;55.536;37.664;2023-09-30T01:36:42;13.45;;;9.18;;
35693;SDS011;21812;55.536;37.664;2023-09-30T01:39:10;16.02;;;10.20;;
35693;SDS011;21812;55.536;37.664;2023-09-30T01:41:37;13.48;;;9.55;;
35693;SDS011;21812;55.536;37.664;2023-09-30T01:44:05;17.92;;;11.27;;
35693;SDS011;21812;55.536;37.664;2023-09-30T01:46:31;15.50;;;11.13;;
35693;SDS011;21812;55.536;37.664;2023-09-30T01:48:57;16.27;;;10.80;;
35693;SDS011;21812;55.536;37.664;2023-09-30T01:51:23;17.95;;;12.07;;
35693;SDS011;21812;55.536;37.664;2023-09-30T01:53:49;16.98;;;11.75;;
35693;SDS011;21812;55.536;37.664;2023-09-30T01:56:16;16.70;;;11.07;;
35693;SDS011;21812;55.536;37.664;2023-09-30T01:58:42;14.55;;;9.40;;
35693;SDS011;21812;55.536;37.664;2023-09-30T02:01:08;14.50;;;8.27;;
35693;SDS011;21812;55.536;37.664;2023-09-30T02:03:34;15.40;;;10.13;;
35693;SDS011;21812;55.536;37.664;2023-09-30T02:06:00;14.98;;;8.82;;
35693;SDS011;21812;55.536;37.664;2023-09-30T02:08:25;14.40;;;9.38;;
35693;SDS011;21812;55.536;37.664;2023-09-30T02:10:51;12.52;;;9.90;;
35693;SDS011;21812;55.536;37.664;2023-09-30T02:13:18;15.75;;;10.43;;
35693;SDS011;21812;55.536;37.664;2023-09-30T02:15:44;19.98;;;10.50;;
35693;SDS011;21812;55.536;37.664;2023-09-30T02:18:10;14.57;;;10.43;;
35693;SDS011;21812;55.536;37.664;2023-09-30T02:20:36;10.63;;;8.15;;
35693;SDS011;21812;55.536;37.664;2023-09-30T02:23:05;15.90;;;9.57;;
35693;SDS011;21812;55.536;37.664;2023-09-30T02:25:39;12.43;;;8.90;;
35693;SDS011;21812;55.536;37.664;2023-09-30T02:28:05;10.95;;;7.68;;
35693;SDS011;21812;55.536;37.664;2023-09-30T02:30:32;14.32;;;8.73;;
35693;SDS011;21812;55.536;37.664;2023-09-30T02:32:59;13.77;;;9.18;;
35693;SDS011;21812;55.536;37.664;2023-09-30T02:35:25;11.77;;;8.07;;
35693;SDS011;21812;55.536;37.664;2023-09-30T02:37:51;10.10;;;8.30;;
35693;SDS011;21812;55.536;37.664;2023-09-30T02:40:18;14.80;;;9.73;;
35693;SDS011;21812;55.536;37.664;2023-09-30T02:42:45;12.70;;;7.60;;
35693;SDS011;21812;55.536;37.664;2023-09-30T02:45:12;14.20;;;8.85;;
35693;SDS011;21812;55.536;37.664;2023-09-30T02:47:39;9.95;;;7.80;;
35693;SDS011;21812;55.536;37.664;2023-09-30T02:50:07;14.10;;;8.82;;
35693;SDS011;21812;55.536;37.664;2023-09-30T02:52:36;12.07;;;7.90;;
35693;SDS011;21812;55.536;37.664;2023-09-30T02:55:03;20.65;;;10.07;;
35693;SDS011;21812;55.536;37.664;2023-09-30T02:57:29;15.20;;;9.95;;
35693;SDS011;21812;55.536;37.664;2023-09-30T02:59:57;15.70;;;9.48;;
35693;SDS011;21812;55.536;37.664;2023-09-30T03:02:24;13.70;;;9.93;;
35693;SDS011;21812;55.536;37.664;2023-09-30T03:04:50;13.35;;;9.07;;
35693;SDS011;21812;55.536;37.664;2023-09-30T03:07:20;11.68;;;7.70;;
35693;SDS011;21812;55.536;37.664;2023-09-30T03:09:46;14.00;;;8.82;;
35693;SDS011;21812;55.536;37.664;2023-09-30T03:12:12;13.70;;;9.07;;
35693;SDS011;21812;55.536;37.664;2023-09-30T03:14:39;15.55;;;9.35;;
35693;SDS011;21812;55.536;37.664;2023-09-30T03:17:05;17.45;;;9.57;;
35693;SDS011;21812;55.536;37.664;2023-09-30T03:19:37;13.88;;;9.18;;
35693;SDS011;21812;55.536;37.664;2023-09-30T03:22:04;11.40;;;8.13;;
35693;SDS011;21812;55.536;37.664;2023-09-30T03:24:37;15.38;;;9.07;;
35693;SDS011;21812;55.536;37.664;2023-09-30T03:27:04;12.30;;;7.78;;
35693;SDS011;21812;55.536;37.664;2023-09-30T03:29:30;12.43;;;8.02;;
35693;SDS011;21812;55.536;37.664;2023-09-30T03:31:56;12.48;;;8.05;;
35693;SDS011;21812;55.536;37.664;2023-09-30T03:34:22;13.15;;;8.95;;
35693;SDS011;21812;55.536;37.664;2023-09-30T03:36:47;12.70;;;8.77;;
35693;SDS011;21812;55.536;37.664;2023-09-30T03:39:13;13.30;;;8.55;;
35693;SDS011;21812;55.536;37.664;2023-09-30T03:41:40;12.15;;;8.32;;
35693;SDS011;21812;55.536;37.664;2023-09-30T03:44:06;13.50;;;7.95;;
35693;SDS011;21812;55.536;37.664;2023-09-30T03:46:32;15.63;;;8.25;;
35693;SDS011;21812;55.536;37.664;2023-09-30T03:48:58;10.27;;;8.05;;
35693;SDS011;21812;55.536;37.664;2023-09-30T03:51:24;12.05;;;9.05;;
35693;SDS011;21812;55.536;37.664;2023-09-30T03:53:51;18.60;;;10.52;;
35693;SDS011;21812;55.536;37.664;2023-09-30T03:56:17;13.80;;;9.40;;
35693;SDS011;21812;55.536;37.664;2023-09-30T03:58:44;12.85;;;7.97;;
35693;SDS011;21812;55.536;37.664;2023-09-30T04:01:10;12.63;;;8.48;;
35693;SDS011;21812;55.536;37.664;2023-09-30T04:03:37;13.85;;;9.23;;
35693;SDS011;21812;55.536;37.664;2023-09-30T04:06:05;15.10;;;9.02;;
35693;SDS011;21812;55.536;37.664;2023-09-30T04:08:34;16.50;;;11.55;;
35693;SDS011;21812;55.536;37.664;2023-09-30T04:11:01;18.60;;;12.57;;
35693;SDS011;21812;55.536;37.664;2023-09-30T04:13:28;17.55;;;11.75;;
35693;SDS011;21812;55.536;37.664;2023-09-30T04:15:55;18.33;;;10.15;;
35693;SDS011;21812;55.536;37.664;2023-09-30T04:18:23;18.70;;;9.20;;
35693;SDS011;21812;55.536;37.664;2023-09-30T04:20:52;18.08;;;11.35;;
35693;SDS011;21812;55.536;37.664;2023-09-30T04:23:18;24.00;;;16.95;;
35693;SDS011;21812;55.536;37.664;2023-09-30T04:25:46;30.83;;;18.98;;
35693;SDS011;21812;55.536;37.664;2023-09-30T04:28:12;25.17;;;15.85;;
35693;SDS011;21812;55.536;37.664;2023-09-30T04:30:39;21.02;;;13.98;;
35693;SDS011;21812;55.536;37.664;2023-09-30T04:33:06;21.08;;;12.60;;
35693;SDS011;21812;55.536;37.664;2023-09-30T04:35:32;20.83;;;12.43;;
35693;SDS011;21812;55.536;37.664;2023-09-30T04:38:00;18.48;;;12.35;;
35693;SDS011;21812;55.536;37.664;2023-09-30T04:40:27;21.33;;;13.25;;
35693;SDS011;21812;55.536;37.664;2023-09-30T04:42:53;24.83;;;13.63;;
35693;SDS011;21812;55.536;37.664;2023-09-30T04:45:24;20.65;;;13.82;;
35693;SDS011;21812;55.536;37.664;2023-09-30T04:47:52;19.83;;;13.23;;
35693;SDS011;21812;55.536;37.664;2023-09-30T04:50:18;75.45;;;18.73;;
35693;SDS011;21812;55.536;37.664;2023-09-30T04:52:50;58.60;;;16.92;;
35693;SDS011;21812;55.536;37.664;2023-09-30T04:55:17;30.13;;;14.30;;
35693;SDS011;21812;55.536;37.664;2023-09-30T04:57:45;33.75;;;15.57;;
35693;SDS011;21812;55.536;37.664;2023-09-30T05:00:13;37.95;;;17.17;;
35693;SDS011;21812;55.536;37.664;2023-09-30T05:02:43;25.13;;;15.55;;
35693;SDS011;21812;55.536;37.664;2023-09-30T05:05:10;23.38;;;14.63;;
35693;SDS011;21812;55.536;37.664;2023-09-30T05:07:36;29.77;;;16.58;;
35693;SDS011;21812;55.536;37.664;2023-09-30T05:10:05;20.63;;;15.13;;
35693;SDS011;21812;55.536;37.664;2023-09-30T05:12:35;19.20;;;14.68;;
35693;SDS011;21812;55.536;37.664;2023-09-30T05:15:01;28.17;;;15.85;;
35693;SDS011;21812;55.536;37.664;2023-09-30T05:17:29;25.27;;;15.35;;
35693;SDS011;21812;55.536;37.664;2023-09-30T05:19:57;30.63;;;15.43;;
35693;SDS011;21812;55.536;37.664;2023-09-30T05:22:23;18.38;;;13.65;;
35693;SDS011;21812;55.536;37.664;2023-09-30T05:24:53;32.30;;;18.30;;
35693;SDS011;21812;55.536;37.664;2023-09-30T05:27:21;25.73;;;18.35;;
35693;SDS011;21812;55.536;37.664;2023-09-30T05:29:47;22.30;;;13.75;;
35693;SDS011;21812;55.536;37.664;2023-09-30T05:32:12;23.02;;;13.70;;
35693;SDS011;21812;55.536;37.664;2023-09-30T05:34:39;17.15;;;13.13;;
35693;SDS011;21812;55.536;37.664;2023-09-30T05:37:05;18.17;;;12.95;;
35693;SDS011;21812;55.536;37.664;2023-09-30T05:39:31;22.42;;;13.63;;
35693;SDS011;21812;55.536;37.664;2023-09-30T05:41:57;21.58;;;15.00;;
35693;SDS011;21812;55.536;37.664;2023-09-30T05:44:23;19.52;;;12.13;;
35693;SDS011;21812;55.536;37.664;2023-09-30T05:46:51;17.00;;;12.93;;
35693;SDS011;21812;55.536;37.664;2023-09-30T05:49:17;24.75;;;14.63;;
35693;SDS011;21812;55.536;37.664;2023-09-30T05:51:44;18.58;;;12.55;;
35693;SDS011;21812;55.536;37.664;2023-09-30T05:54:12;26.02;;;13.48;;
35693;SDS011;21812;55.536;37.664;2023-09-30T05:56:38;23.65;;;13.65;;
35693;SDS011;21812;55.536;37.664;2023-09-30T05:59:04;25.02;;;14.10;;
35693;SDS011;21812;55.536;37.664;2023-09-30T06:01:32;18.55;;;13.80;;
35693;SDS011;21812;55.536;37.664;2023-09-30T06:03:58;19.83;;;13.98;;
35693;SDS011;21812;55.536;37.664;2023-09-30T06:06:25;21.52;;;13.80;;
35693;SDS011;21812;55.536;37.664;2023-09-30T06:08:54;19.00;;;12.57;;
35693;SDS011;21812;55.536;37.664;2023-09-30T06:11:20;21.50;;;11.95;;
35693;SDS011;21812;55.536;37.664;2023-09-30T06:13:55;18.10;;;11.65;;
35693;SDS011;21812;55.536;37.664;2023-09-30T06:16:24;18.27;;;12.70;;
35693;SDS011;21812;55.536;37.664;2023-09-30T06:18:52;21.75;;;11.88;;
35693;SDS011;21812;55.536;37.664;2023-09-30T06:21:19;16.90;;;11.85;;
35693;SDS011;21812;55.536;37.664;2023-09-30T06:23:50;21.42;;;12.43;;
35693;SDS011;21812;55.536;37.664;2023-09-30T06:26:19;16.80;;;11.10;;
35693;SDS011;21812;55.536;37.664;2023-09-30T06:28:46;15.52;;;10.68;;
35693;SDS011;21812;55.536;37.664;2023-09-30T06:31:13;14.55;;;10.32;;
35693;SDS011;21812;55.536;37.664;2023-09-30T06:33:39;15.98;;;11.48;;
35693;SDS011;21812;55.536;37.664;2023-09-30T06:36:09;14.07;;;10.68;;
35693;SDS011;21812;55.536;37.664;2023-09-30T06:38:36;19.67;;;11.70;;
35693;SDS011;21812;55.536;37.664;2023-09-30T06:41:05;19.95;;;11.93;;
35693;SDS011;21812;55.536;37.664;2023-09-30T06:43:32;19.83;;;11.63;;
35693;SDS011;21812;55.536;37.664;2023-09-30T06:45:58;16.58;;;11.95;;
35693;SDS011;21812;55.536;37.664;2023-09-30T06:48:24;19.45;;;12.40;;
35693;SDS011;21812;55.536;37.664;2023-09-30T06:50:50;21.17;;;13.80;;
35693;SDS011;21812;55.536;37.664;2023-09-30T06:53:18;22.23;;;12.15;;
35693;SDS011;21812;55.536;37.664;2023-09-30T06:55:44;17.33;;;13.23;;
35693;SDS011;21812;55.536;37.664;2023-09-30T06:58:11;20.23;;;13.00;;
35693;SDS011;21812;55.536;37.664;2023-09-30T07:00:43;22.92;;;13.00;;
35693;SDS011;21812;55.536;37.664;2023-09-30T07:03:09;17.55;;;12.77;;
35693;SDS011;21812;55.536;37.664;2023-09-30T07:05:39;21.48;;;13.27;;
35693;SDS011;21812;55.536;37.664;2023-09-30T07:08:05;21.00;;;14.15;;
35693;SDS011;21812;55.536;37.664;2023-09-30T07:10:31;17.15;;;13.10;;
35693;SDS011;21812;55.536;37.664;2023-09-30T07:12:56;22.45;;;13.82;;
35693;SDS011;21812;55.536;37.664;2023-09-30T07:15:22;23.50;;;12.05;;
35693;SDS011;21812;55.536;37.664;2023-09-30T07:17:48;31.95;;;12.32;;
35693;SDS011;21812;55.536;37.664;2023-09-30T07:20:14;17.17;;;10.43;;
35693;SDS011;21812;55.536;37.664;2023-09-30T07:22:40;17.45;;;10.98;;
35693;SDS011;21812;55.536;37.664;2023-09-30T07:25:06;17.10;;;10.43;;
35693;SDS011;21812;55.536;37.664;2023-09-30T07:27:33;17.27;;;10.98;;
35693;SDS011;21812;55.536;37.664;2023-09-30T07:29:59;18.27;;;10.63;;
35693;SDS011;21812;55.536;37.664;2023-09-30T07:32:25;11.52;;;9.95;;
35693;SDS011;21812;55.536;37.664;2023-09-30T07:34:51;12.30;;;9.07;;
35693;SDS011;21812;55.536;37.664;2023-09-30T07:37:17;10.70;;;9.15;;
35693;SDS011;21812;55.536;37.664;2023-09-30T07:39:44;12.38;;;8.27;;
35693;SDS011;21812;55.536;37.664;2023-09-30T07:42:10;16.27;;;9.35;;
35693;SDS011;21812;55.536;37.664;2023-09-30T07:44:36;11.45;;;8.70;;
35693;SDS011;21812;55.536;37.664;2023-09-30T07:47:03;16.63;;;9.82;;
35693;SDS011;21812;55.536;37.664;2023-09-30T07:49:29;11.88;;;8.68;;
35693;SDS011;21812;55.536;37.664;2023-09-30T07:51:55;12.07;;;8.85;;
35693;SDS011;21812;55.536;37.664;2023-09-30T07:54:21;12.23;;;8.20;;
35693;SDS011;21812;55.536;37.664;2023-09-30T07:56:47;12.90;;;8.13;;
35693;SDS011;21812;55.536;37.664;2023-09-30T07:59:12;12.55;;;8.10;;
35693;SDS011;21812;55.536;37.664;2023-09-30T08:01:39;10.85;;;7.53;;
35693;SDS011;21812;55.536;37.664;2023-09-30T08:04:06;16.77;;;9.30;;
35693;SDS011;21812;55.536;37.664;2023-09-30T08:06:31;10.93;;;7.95;;
35693;SDS011;21812;55.536;37.664;2023-09-30T08:08:58;10.48;;;8.38;;
35693;SDS011;21812;55.536;37.664;2023-09-30T08:11:23;18.67;;;8.00;;
35693;SDS011;21812;55.536;37.664;2023-09-30T08:13:53;10.35;;;7.95;;
35693;SDS011;21812;55.536;37.664;2023-09-30T08:16:19;16.52;;;7.72;;
35693;SDS011;21812;55.536;37.664;2023-09-30T08:18:45;17.88;;;8.30;;
35693;SDS011;21812;55.536;37.664;2023-09-30T08:21:11;12.10;;;8.52;;
35693;SDS011;21812;55.536;37.664;2023-09-30T08:23:37;11.02;;;8.10;;
35693;SDS011;21812;55.536;37.664;2023-09-30T08:26:07;10.50;;;8.45;;
35693;SDS011;21812;55.536;37.664;2023-09-30T08:28:32;9.60;;;7.82;;
35693;SDS011;21812;55.536;37.664;2023-09-30T08:31:05;14.23;;;7.38;;
35693;SDS011;21812;55.536;37.664;2023-09-30T08:33:31;11.88;;;7.30;;
35693;SDS011;21812;55.536;37.664;2023-09-30T08:36:04;15.93;;;7.35;;
35693;SDS011;21812;55.536;37.664;2023-09-30T08:38:35;14.15;;;7.00;;
35693;SDS011;21812;55.536;37.664;2023-09-30T08:41:05;12.23;;;7.22;;
35693;SDS011;21812;55.536;37.664;2023-09-30T08:43:38;9.43;;;7.07;;
35693;SDS011;21812;55.536;37.664;2023-09-30T08:46:05;9.15;;;6.57;;
35693;SDS011;21812;55.536;37.664;2023-09-30T08:48:32;14.40;;;7.05;;
35693;SDS011;21812;55.536;37.664;2023-09-30T08:50:58;12.60;;;6.70;;
35693;SDS011;21812;55.536;37.664;2023-09-30T08:53:25;13.43;;;6.20;;
35693;SDS011;21812;55.536;37.664;2023-09-30T08:55:54;8.60;;;6.10;;
35693;SDS011;21812;55.536;37.664;2023-09-30T08:58:24;8.82;;;6.20;;
35693;SDS011;21812;55.536;37.664;2023-09-30T09:00:52;11.20;;;7.28;;
35693;SDS011;21812;55.536;37.664;2023-09-30T09:03:18;12.05;;;7.07;;
35693;SDS011;21812;55.536;37.664;2023-09-30T09:05:45;10.27;;;6.47;;
35693;SDS011;21812;55.536;37.664;2023-09-30T09:08:12;9.77;;;6.47;;
35693;SDS011;21812;55.536;37.664;2023-09-30T09:10:53;9.40;;;6.40;;
35693;SDS011;21812;55.536;37.664;2023-09-30T09:13:23;14.13;;;6.80;;
35693;SDS011;21812;55.536;37.664;2023-09-30T09:16:04;8.63;;;6.65;;
35693;SDS011;21812;55.536;37.664;2023-09-30T09:18:32;8.45;;;6.40;;
35693;SDS011;21812;55.536;37.664;2023-09-30T09:21:11;10.25;;;6.30;;
35693;SDS011;21812;55.536;37.664;2023-09-30T09:23:47;10.68;;;6.63;;
35693;SDS011;21812;55.536;37.664;2023-09-30T09:26:24;9.40;;;6.40;;
35693;SDS011;21812;55.536;37.664;2023-09-30T09:28:58;9.27;;;6.68;;
35693;SDS011;21812;55.536;37.664;2023-09-30T09:31:32;12.60;;;6.82;;
35693;SDS011;21812;55.536;37.664;2023-09-30T09:34:03;8.93;;;6.68;;
35693;SDS011;21812;55.536;37.664;2023-09-30T09:36:39;11.57;;;5.90;;
35693;SDS011;21812;55.536;37.664;2023-09-30T09:39:07;10.90;;;5.85;;
35693;SDS011;21812;55.536;37.664;2023-09-30T09:41:34;10.30;;;6.13;;
35693;SDS011;21812;55.536;37.664;2023-09-30T09:44:15;9.93;;;6.63;;
35693;SDS011;21812;55.536;37.664;2023-09-30T09:46:44;8.98;;;6.50;;
35693;SDS011;21812;55.536;37.664;2023-09-30T09:49:12;11.73;;;7.20;;
35693;SDS011;21812;55.536;37.664;2023-09-30T09:51:40;8.60;;;6.32;;
35693;SDS011;21812;55.536;37.664;2023-09-30T09:54:09;12.32;;;6.45;;
35693;SDS011;21812;55.536;37.664;2023-09-30T09:56:36;7.47;;;6.25;;
35693;SDS011;21812;55.536;37.664;2023-09-30T09:59:04;10.75;;;6.65;;
35693;SDS011;21812;55.536;37.664;2023-09-30T10:01:34;8.40;;;6.25;;
35693;SDS011;21812;55.536;37.664;2023-09-30T10:04:01;10.35;;;6.00;;
35693;SDS011;21812;55.536;37.664;2023-09-30T10:06:27;7.35;;;6.47;;
35693;SDS011;21812;55.536;37.664;2023-09-30T10:08:54;10.60;;;6.55;;
35693;SDS011;21812;55.536;37.664;2023-09-30T10:11:22;8.02;;;6.45;;
35693;SDS011;21812;55.536;37.664;2023-09-30T10:13:52;13.95;;;6.35;;
35693;SDS011;21812;55.536;37.664;2023-09-30T10:19:09;8.68;;;6.85;;
35693;SDS011;21812;55.536;37.664;2023-09-30T10:29:54;17.05;;;7.70;;
35693;SDS011;21812;55.536;37.664;2023-09-30T10:35:09;15.48;;;10.85;;
35693;SDS011;21812;55.536;37.664;2023-09-30T10:37:36;13.15;;;7.93;;
35693;SDS011;21812;55.536;37.664;2023-09-30T10:40:02;12.55;;;7.35;;
35693;SDS011;21812;55.536;37.664;2023-09-30T10:42:48;14.75;;;8.98;;
35693;SDS011;21812;55.536;37.664;2023-09-30T10:51:15;11.48;;;7.03;;
35693;SDS011;21812;55.536;37.664;2023-09-30T10:53:50;9.27;;;6.63;;
35693;SDS011;21812;55.536;37.664;2023-09-30T10:56:18;11.38;;;7.28;;
35693;SDS011;21812;55.536;37.664;2023-09-30T11:01:16;17.20;;;7.55;;
35693;SDS011;21812;55.536;37.664;2023-09-30T11:03:44;9.10;;;6.75;;
35693;SDS011;21812;55.536;37.664;2023-09-30T11:06:15;12.27;;;7.30;;
35693;SDS011;21812;55.536;37.664;2023-09-30T11:08:57;17.85;;;6.60;;
35693;SDS011;21812;55.536;37.664;2023-09-30T11:11:58;13.43;;;6.82;;
35693;SDS011;21812;55.536;37.664;2023-09-30T11:16:46;8.55;;;6.43;;
35693;SDS011;21812;55.536;37.664;2023-09-30T11:19:14;9.38;;;6.18;;
35693;SDS011;21812;55.536;37.664;2023-09-30T11:21:47;9.63;;;6.30;;
35693;SDS011;21812;55.536;37.664;2023-09-30T11:24:14;7.43;;;5.93;;
35693;SDS011;21812;55.536;37.664;2023-09-30T11:26:41;8.27;;;6.05;;
35693;SDS011;21812;55.536;37.664;2023-09-30T11:31:36;11.73;;;6.75;;
35693;SDS011;21812;55.536;37.664;2023-09-30T11:34:03;10.38;;;6.65;;
35693;SDS011;21812;55.536;37.664;2023-09-30T11:36:30;13.45;;;6.47;;
35693;SDS011;21812;55.536;37.664;2023-09-30T11:38:56;12.55;;;6.97;;
35693;SDS011;21812;55.536;37.664;2023-09-30T11:41:22;11.57;;;6.93;;
35693;SDS011;21812;55.536;37.664;2023-09-30T11:44:01;8.75;;;6.60;;
35693;SDS011;21812;55.536;37.664;2023-09-30T11:46:52;9.18;;;6.15;;
35693;SDS011;21812;55.536;37.664;2023-09-30T11:49:33;10.77;;;6.90;;
35693;SDS011;21812;55.536;37.664;2023-09-30T11:52:08;7.10;;;5.90;;
35693;SDS011;21812;55.536;37.664;2023-09-30T11:54:36;18.48;;;5.80;;
35693;SDS011;21812;55.536;37.664;2023-09-30T11:57:07;13.10;;;6.78;;
35693;SDS011;21812;55.536;37.664;2023-09-30T11:59:37;9.48;;;7.00;;
35693;SDS011;21812;55.536;37.664;2023-09-30T12:02:04;14.85;;;7.68;;
35693;SDS011;21812;55.536;37.664;2023-09-30T12:04:36;9.77;;;6.85;;
35693;SDS011;21812;55.536;37.664;2023-09-30T12:07:05;12.02;;;6.55;;
35693;SDS011;21812;55.536;37.664;2023-09-30T12:09:34;8.23;;;6.68;;
35693;SDS011;21812;55.536;37.664;2023-09-30T12:12:03;9.88;;;5.90;;
35693;SDS011;21812;55.536;37.664;2023-09-30T12:14:29;12.10;;;7.13;;
35693;SDS011;21812;55.536;37.664;2023-09-30T12:16:58;10.85;;;6.10;;
35693;SDS011;21812;55.536;37.664;2023-09-30T12:19:24;11.68;;;6.32;;
35693;SDS011;21812;55.536;37.664;2023-09-30T12:21:51;9.60;;;7.13;;
35693;SDS011;21812;55.536;37.664;2023-09-30T12:24:17;8.93;;;5.88;;
35693;SDS011;21812;55.536;37.664;2023-09-30T12:26:50;8.45;;;5.90;;
35693;SDS011;21812;55.536;37.664;2023-09-30T12:29:18;9.60;;;6.20;;
35693;SDS011;21812;55.536;37.664;2023-09-30T12:31:45;13.48;;;6.72;;
35693;SDS011;21812;55.536;37.664;2023-09-30T12:34:11;6.97;;;5.90;;
35693;SDS011;21812;55.536;37.664;2023-09-30T12:36:41;7.18;;;5.78;;
35693;SDS011;21812;55.536;37.664;2023-09-30T12:39:08;10.40;;;6.10;;
35693;SDS011;21812;55.536;37.664;2023-09-30T12:41:40;13.07;;;6.95;;
35693;SDS011;21812;55.536;37.664;2023-09-30T12:44:07;9.48;;;6.35;;
35693;SDS011;21812;55.536;37.664;2023-09-30T12:46:33;6.78;;;5.63;;
35693;SDS011;21812;55.536;37.664;2023-09-30T12:49:02;12.02;;;7.07;;
35693;SDS011;21812;55.536;37.664;2023-09-30T12:51:29;11.07;;;7.13;;
35693;SDS011;21812;55.536;37.664;2023-09-30T12:53:55;8.95;;;6.47;;
35693;SDS011;21812;55.536;37.664;2023-09-30T12:56:22;7.88;;;5.97;;
35693;SDS011;21812;55.536;37.664;2023-09-30T12:58:47;11.40;;;7.00;;
35693;SDS011;21812;55.536;37.664;2023-09-30T13:01:13;13.30;;;7.18;;
35693;SDS011;21812;55.536;37.664;2023-09-30T13:03:39;7.18;;;5.95;;
35693;SDS011;21812;55.536;37.664;2023-09-30T13:06:05;8.65;;;6.25;;
35693;SDS011;21812;55.536;37.664;2023-09-30T13:08:30;8.55;;;6.07;;
35693;SDS011;21812;55.536;37.664;2023-09-30T13:11:02;9.55;;;6.70;;
35693;SDS011;21812;55.536;37.664;2023-09-30T13:13:29;7.47;;;5.88;;
35693;SDS011;21812;55.536;37.664;2023-09-30T13:15:59;13.60;;;7.30;;
35693;SDS011;21812;55.536;37.664;2023-09-30T13:18:25;9.88;;;7.47;;
35693;SDS011;21812;55.536;37.664;2023-09-30T13:20:51;7.05;;;6.22;;
35693;SDS011;21812;55.536;37.664;2023-09-30T13:23:18;17.08;;;7.43;;
35693;SDS011;21812;55.536;37.664;2023-09-30T13:25:44;9.60;;;6.68;;
35693;SDS011;21812;55.536;37.664;2023-09-30T13:28:10;7.55;;;6.70;;
35693;SDS011;21812;55.536;37.664;2023-09-30T13:30:36;12.20;;;6.95;;
35693;SDS011;21812;55.536;37.664;2023-09-30T13:33:01;12.45;;;6.53;;
35693;SDS011;21812;55.536;37.664;2023-09-30T13:35:27;9.90;;;6.70;;
35693;SDS011;21812;55.536;37.664;2023-09-30T13:37:53;9.13;;;6.40;;
35693;SDS011;21812;55.536;37.664;2023-09-30T13:40:18;9.20;;;5.90;;
35693;SDS011;21812;55.536;37.664;2023-09-30T13:42:45;10.10;;;6.35;;
35693;SDS011;21812;55.536;37.664;2023-09-30T13:45:12;11.20;;;7.28;;
35693;SDS011;21812;55.536;37.664;2023-09-30T13:47:38;7.88;;;6.47;;
35693;SDS011;21812;55.536;37.664;2023-09-30T13:50:04;11.20;;;6.70;;
35693;SDS011;21812;55.536;37.664;2023-09-30T13:52:35;14.82;;;5.85;;
35693;SDS011;21812;55.536;37.664;2023-09-30T13:55:01;10.90;;;7.18;;
35693;SDS011;21812;55.536;37.664;2023-09-30T13:57:30;11.13;;;7.75;;
35693;SDS011;21812;55.536;37.664;2023-09-30T13:59:56;11.45;;;8.60;;
35693;SDS011;21812;55.536;37.664;2023-09-30T14:02:22;18.80;;;10.25;;
35693;SDS011;21812;55.536;37.664;2023-09-30T14:04:48;16.00;;;10.40;;
35693;SDS011;21812;55.536;37.664;2023-09-30T14:07:15;15.80;;;9.65;;
35693;SDS011;21812;55.536;37.664;2023-09-30T14:09:43;14.45;;;10.52;;
35693;SDS011;21812;55.536;37.664;2023-09-30T14:12:09;14.05;;;8.80;;
35693;SDS011;21812;55.536;37.664;2023-09-30T14:14:35;13.55;;;8.68;;
35693;SDS011;21812;55.536;37.664;2023-09-30T14:17:01;12.48;;;7.20;;
35693;SDS011;21812;55.536;37.664;2023-09-30T14:19:33;15.07;;;7.25;;
35693;SDS011;21812;55.536;37.664;2023-09-30T14:22:00;11.85;;;7.32;;
35693;SDS011;21812;55.536;37.664;2023-09-30T14:24:26;11.32;;;8.25;;
35693;SDS011;21812;55.536;37.664;2023-09-30T14:26:52;8.73;;;6.70;;
35693;SDS011;21812;55.536;37.664;2023-09-30T14:29:18;8.50;;;5.97;;
35693;SDS011;21812;55.536;37.664;2023-09-30T14:31:44;14.38;;;7.70;;
35693;SDS011;21812;55.536;37.664;2023-09-30T14:34:09;15.27;;;7.82;;
35693;SDS011;21812;55.536;37.664;2023-09-30T14:36:35;12.32;;;7.15;;
35693;SDS011;21812;55.536;37.664;2023-09-30T14:39:01;9.38;;;7.05;;
35693;SDS011;21812;55.536;37.664;2023-09-30T14:41:27;11.65;;;7.20;;
35693;SDS011;21812;55.536;37.664;2023-09-30T14:43:53;10.43;;;7.28;;
35693;SDS011;21812;55.536;37.664;2023-09-30T14:46:18;11.80;;;7.85;;
35693;SDS011;21812;55.536;37.664;2023-09-30T14:48:45;9.93;;;6.85;;